createdAt,value
2015-10-24T00:00:09.220Z,74239
2015-10-24T00:00:21.549Z,74243
2015-10-24T00:00:33.877Z,74237
2015-10-24T00:00:46.205Z,74240
2015-10-24T00:00:58.533Z,74238
2015-10-24T00:01:10.895Z,74238
2015-10-24T00:01:23.223Z,74237
2015-10-24T00:01:35.552Z,74235
2015-10-24T00:01:47.895Z,74231
2015-10-24T00:02:00.239Z,74235
2015-10-24T00:02:12.585Z,74239
2015-10-24T00:02:24.913Z,74239
2015-10-24T00:02:37.225Z,74243
2015-10-24T00:02:49.554Z,74237
2015-10-24T00:03:01.882Z,74239
2015-10-24T00:03:14.291Z,74237
2015-10-24T00:03:26.603Z,74245
2015-10-24T00:03:38.963Z,74242
2015-10-24T00:03:51.291Z,74238
2015-10-24T00:04:03.666Z,74240
2015-10-24T00:04:16.028Z,74237
2015-10-24T00:04:27.669Z,74237
2015-10-24T00:04:40.013Z,74241
2015-10-24T00:04:52.325Z,74240
2015-10-24T00:05:04.669Z,74243
2015-10-24T00:05:16.999Z,74239
2015-10-24T00:05:29.171Z,74242
2015-10-24T00:05:41.515Z,74240
2015-10-24T00:05:53.843Z,74238
2015-10-24T00:06:06.190Z,74243
2015-10-24T00:06:18.549Z,74241
2015-10-24T00:06:30.908Z,74244
2015-10-24T00:06:43.236Z,74240
2015-10-24T00:06:55.565Z,74239
2015-10-24T00:07:07.896Z,74241
2015-10-24T00:07:20.489Z,74239
2015-10-24T00:07:32.833Z,74246
2015-10-24T00:07:45.161Z,74237
2015-10-24T00:07:57.489Z,74237
2015-10-24T00:08:09.821Z,74241
2015-10-24T00:08:22.164Z,74239
2015-10-24T00:08:34.524Z,74243
2015-10-24T00:08:46.883Z,74240
2015-10-24T00:08:59.242Z,74242
2015-10-24T00:09:11.557Z,74242
2015-10-24T00:09:23.729Z,74234
2015-10-24T00:09:36.057Z,74237
2015-10-24T00:09:48.385Z,74238
2015-10-24T00:10:00.729Z,74244
2015-10-24T00:10:13.061Z,74244
2015-10-24T00:10:25.405Z,74247
2015-10-24T00:10:37.748Z,74239
2015-10-24T00:10:50.123Z,74245
2015-10-24T00:11:02.467Z,74240
2015-10-24T00:11:14.797Z,74246
2015-10-24T00:11:27.125Z,74239
2015-10-24T00:11:39.454Z,74238
2015-10-24T00:11:51.782Z,74240
2015-10-24T00:12:04.125Z,74237
2015-10-24T00:12:16.456Z,74240
2015-10-24T00:12:28.799Z,74238
2015-10-24T00:12:41.143Z,74240
2015-10-24T00:12:53.487Z,74243
2015-10-24T00:13:05.831Z,74242
2015-10-24T00:13:18.146Z,74245
2015-10-24T00:13:30.474Z,74247
2015-10-24T00:13:42.818Z,74241
2015-10-24T00:13:55.130Z,74242
2015-10-24T00:14:07.459Z,74244
2015-10-24T00:14:19.790Z,74245
2015-10-24T00:14:32.118Z,74243
2015-10-24T00:14:44.477Z,74245
2015-10-24T00:14:56.837Z,74241
2015-10-24T00:15:09.196Z,74241
2015-10-24T00:15:21.558Z,74245
2015-10-24T00:15:33.886Z,74240
2015-10-24T00:15:46.215Z,74242
2015-10-24T00:15:58.543Z,74244
2015-10-24T00:16:10.855Z,74238
2015-10-24T00:16:23.186Z,74237
2015-10-24T00:16:35.514Z,74245
2015-10-24T00:16:47.858Z,74243
2015-10-24T00:17:00.202Z,74243
2015-10-24T00:17:12.548Z,74244
2015-10-24T00:17:24.204Z,74244
2015-10-24T00:17:36.563Z,74242
2015-10-24T00:17:49.001Z,74243
2015-10-24T00:18:01.313Z,74241
2015-10-24T00:18:13.644Z,74242
2015-10-24T00:18:25.973Z,74241
2015-10-24T00:18:38.301Z,74241
2015-10-24T00:18:50.629Z,74241
2015-10-24T00:19:02.941Z,74246
2015-10-24T00:19:15.272Z,74243
2015-10-24T00:19:27.616Z,74245
2015-10-24T00:19:39.991Z,74241
2015-10-24T00:19:52.351Z,74245
2015-10-24T00:20:04.694Z,74246
2015-10-24T00:20:17.025Z,74246
2015-10-24T00:20:29.354Z,74246
2015-10-24T00:20:41.682Z,74244
2015-10-24T00:20:53.854Z,74239
2015-10-24T00:21:06.182Z,74243
2015-10-24T00:21:18.527Z,74239
2015-10-24T00:21:30.856Z,74240
2015-10-24T00:21:43.043Z,74240
2015-10-24T00:21:55.402Z,74244
2015-10-24T00:22:07.762Z,74237
2015-10-24T00:22:20.124Z,74237
2015-10-24T00:22:32.437Z,74238
2015-10-24T00:22:44.780Z,74239
2015-10-24T00:22:57.124Z,74237
2015-10-24T00:23:09.452Z,74232
2015-10-24T00:23:21.783Z,74236
2015-10-24T00:23:34.112Z,74244
2015-10-24T00:23:46.440Z,74236
2015-10-24T00:23:58.783Z,74244
2015-10-24T00:24:11.127Z,74241
2015-10-24T00:24:23.489Z,74234
2015-10-24T00:24:35.848Z,74237
2015-10-24T00:24:48.176Z,74233
2015-10-24T00:25:00.504Z,74237
2015-10-24T00:25:12.832Z,74243
2015-10-24T00:25:25.163Z,74236
2015-10-24T00:25:37.492Z,74236
2015-10-24T00:25:49.820Z,74230
2015-10-24T00:26:01.429Z,74234
2015-10-24T00:26:13.773Z,74234
2015-10-24T00:26:26.135Z,74233
2015-10-24T00:26:38.495Z,74238
2015-10-24T00:26:50.854Z,74237
2015-10-24T00:27:03.182Z,74241
2015-10-24T00:27:15.510Z,74234
2015-10-24T00:27:27.840Z,74234
2015-10-24T00:27:40.168Z,74234
2015-10-24T00:27:52.497Z,74232
2015-10-24T00:28:04.825Z,74242
2015-10-24T00:28:17.171Z,74234
2015-10-24T00:28:29.500Z,74238
2015-10-24T00:28:41.859Z,74237
2015-10-24T00:28:54.234Z,74236
2015-10-24T00:29:06.593Z,74236
2015-10-24T00:29:18.971Z,74239
2015-10-24T00:29:31.299Z,74239
2015-10-24T00:29:43.612Z,74238
2015-10-24T00:29:55.940Z,74240
2015-10-24T00:30:08.268Z,74239
2015-10-24T00:30:20.458Z,74241
2015-10-24T00:30:32.458Z,74241
2015-10-24T00:30:44.505Z,74245
2015-10-24T00:30:56.223Z,74235
2015-10-24T00:31:08.583Z,74240
2015-10-24T00:31:20.648Z,74237
2015-10-24T00:31:32.898Z,74238
2015-10-24T00:31:44.371Z,74240
2015-10-24T00:31:56.699Z,74245
2015-10-24T00:32:08.902Z,74236
2015-10-24T00:32:21.249Z,74244
2015-10-24T00:32:33.436Z,74242
2015-10-24T00:32:45.764Z,74242
2015-10-24T00:32:58.093Z,74241
2015-10-24T00:33:10.421Z,74245
2015-10-24T00:33:22.783Z,74244
2015-10-24T00:33:35.142Z,74241
2015-10-24T00:33:47.502Z,74240
2015-10-24T00:33:59.814Z,74243
2015-10-24T00:34:12.158Z,74240
2015-10-24T00:34:24.488Z,74241
2015-10-24T00:34:36.816Z,74234
2015-10-24T00:34:49.160Z,74230
2015-10-24T00:35:01.488Z,74239
2015-10-24T00:35:13.832Z,74235
2015-10-24T00:35:26.194Z,74239
2015-10-24T00:35:38.538Z,74237
2015-10-24T00:35:50.897Z,74236
2015-10-24T00:36:03.210Z,74231
2015-10-24T00:36:15.538Z,74239
2015-10-24T00:36:27.869Z,74235
2015-10-24T00:36:40.197Z,74236
2015-10-24T00:36:52.541Z,74235
2015-10-24T00:37:04.869Z,74238
2015-10-24T00:37:17.197Z,74237
2015-10-24T00:37:29.544Z,74243
2015-10-24T00:37:41.903Z,74247
2015-10-24T00:37:54.263Z,74239
2015-10-24T00:38:06.622Z,74239
2015-10-24T00:38:18.950Z,74237
2015-10-24T00:38:31.280Z,74239
2015-10-24T00:38:43.609Z,74237
2015-10-24T00:38:55.937Z,74238
2015-10-24T00:39:08.265Z,74239
2015-10-24T00:39:20.609Z,74238
2015-10-24T00:39:32.940Z,74238
2015-10-24T00:39:45.299Z,74235
2015-10-24T00:39:57.658Z,74235
2015-10-24T00:40:10.018Z,74237
2015-10-24T00:40:22.346Z,74234
2015-10-24T00:40:34.676Z,74233
2015-10-24T00:40:47.004Z,74234
2015-10-24T00:40:59.332Z,74237
2015-10-24T00:41:11.676Z,74240
2015-10-24T00:41:24.004Z,74237
2015-10-24T00:41:36.335Z,74236
2015-10-24T00:41:48.679Z,74242
2015-10-24T00:42:01.007Z,74236
2015-10-24T00:42:13.367Z,74239
2015-10-24T00:42:25.713Z,74239
2015-10-24T00:42:38.026Z,74245
2015-10-24T00:42:50.370Z,74239
2015-10-24T00:43:02.682Z,74241
2015-10-24T00:43:15.041Z,74236
2015-10-24T00:43:27.373Z,74239
2015-10-24T00:43:39.716Z,74240
2015-10-24T00:43:52.076Z,74242
2015-10-24T00:44:04.419Z,74239
2015-10-24T00:44:16.748Z,74245
2015-10-24T00:44:29.078Z,74232
2015-10-24T00:44:41.406Z,74239
2015-10-24T00:44:53.031Z,74237
2015-10-24T00:45:05.359Z,74244
2015-10-24T00:45:17.687Z,74237
2015-10-24T00:45:30.018Z,74231
2015-10-24T00:45:42.362Z,74233
2015-10-24T00:45:54.018Z,74240
2015-10-24T00:46:06.378Z,74241
2015-10-24T00:46:18.753Z,74237
2015-10-24T00:46:30.380Z,74242
2015-10-24T00:46:42.708Z,74237
2015-10-24T00:46:55.051Z,74249
2015-10-24T00:47:07.380Z,74240
2015-10-24T00:47:19.708Z,74235
2015-10-24T00:47:32.024Z,74240
2015-10-24T00:47:44.368Z,74237
2015-10-24T00:47:56.712Z,74236
2015-10-24T00:48:09.055Z,74239
2015-10-24T00:48:21.430Z,74240
2015-10-24T00:48:33.792Z,74239
2015-10-24T00:48:46.151Z,74238
2015-10-24T00:48:58.479Z,74241
2015-10-24T00:49:10.807Z,74237
2015-10-24T00:49:23.136Z,74241
2015-10-24T00:49:35.467Z,74239
2015-10-24T00:49:47.076Z,74239
2015-10-24T00:49:58.701Z,74243
2015-10-24T00:50:11.029Z,74238
2015-10-24T00:50:23.389Z,74239
2015-10-24T00:50:35.735Z,74243
2015-10-24T00:50:48.095Z,74241
2015-10-24T00:51:00.423Z,74242
2015-10-24T00:51:12.751Z,74242
2015-10-24T00:51:25.095Z,74240
2015-10-24T00:51:37.409Z,74239
2015-10-24T00:51:49.769Z,74239
2015-10-24T00:52:02.097Z,74242
2015-10-24T00:52:14.440Z,74243
2015-10-24T00:52:26.784Z,74241
2015-10-24T00:52:39.115Z,74242
2015-10-24T00:52:51.475Z,74240
2015-10-24T00:53:04.084Z,74237
2015-10-24T00:53:16.412Z,74242
2015-10-24T00:53:28.740Z,74236
2015-10-24T00:53:41.056Z,74238
2015-10-24T00:53:53.400Z,74240
2015-10-24T00:54:05.728Z,74235
2015-10-24T00:54:18.071Z,74235
2015-10-24T00:54:30.400Z,74239
2015-10-24T00:54:42.761Z,74238
2015-10-24T00:54:55.120Z,74233
2015-10-24T00:55:07.464Z,74230
2015-10-24T00:55:19.792Z,74234
2015-10-24T00:55:32.120Z,74230
2015-10-24T00:55:44.467Z,74230
2015-10-24T00:55:56.780Z,74228
2015-10-24T00:56:09.139Z,74236
2015-10-24T00:56:21.483Z,74236
2015-10-24T00:56:33.811Z,74238
2015-10-24T00:56:46.159Z,74236
2015-10-24T00:56:58.518Z,74232
2015-10-24T00:57:10.893Z,74230
2015-10-24T00:57:23.237Z,74235
2015-10-24T00:57:35.473Z,74238
2015-10-24T00:57:47.801Z,74236
2015-10-24T00:58:00.114Z,74235
2015-10-24T00:58:12.457Z,74238
2015-10-24T00:58:24.786Z,74241
2015-10-24T00:58:37.117Z,74236
2015-10-24T00:58:49.445Z,74235
2015-10-24T00:59:01.789Z,74236
2015-10-24T00:59:14.117Z,74234
2015-10-24T00:59:26.476Z,74231
2015-10-24T00:59:38.838Z,74232
2015-10-24T00:59:51.151Z,74230
2015-10-24T01:00:03.495Z,74232
2015-10-24T01:00:15.823Z,74228
2015-10-24T01:00:28.167Z,74231
2015-10-24T01:00:40.511Z,74228
2015-10-24T01:00:52.824Z,74231
2015-10-24T01:01:05.199Z,74227
2015-10-24T01:01:17.543Z,74228
2015-10-24T01:01:29.902Z,74232
2015-10-24T01:01:42.249Z,74232
2015-10-24T01:01:54.577Z,74236
2015-10-24T01:02:06.905Z,74231
2015-10-24T01:02:19.264Z,74227
2015-10-24T01:02:31.671Z,74231
2015-10-24T01:02:44.017Z,74227
2015-10-24T01:02:56.361Z,74229
2015-10-24T01:03:08.736Z,74220
2015-10-24T01:03:21.095Z,74225
2015-10-24T01:03:33.408Z,74226
2015-10-24T01:03:45.739Z,74224
2015-10-24T01:03:58.083Z,74223
2015-10-24T01:04:10.411Z,74222
2015-10-24T01:04:22.739Z,74220
2015-10-24T01:04:35.052Z,74219
2015-10-24T01:04:47.398Z,74218
2015-10-24T01:04:59.742Z,74219
2015-10-24T01:05:12.101Z,74228
2015-10-24T01:05:24.461Z,74223
2015-10-24T01:05:36.773Z,74225
2015-10-24T01:05:49.088Z,74226
2015-10-24T01:06:01.400Z,74229
2015-10-24T01:06:13.713Z,74230
2015-10-24T01:06:26.041Z,74229
2015-10-24T01:06:38.369Z,74234
2015-10-24T01:06:50.701Z,74230
2015-10-24T01:07:03.045Z,74228
2015-10-24T01:07:15.404Z,74228
2015-10-24T01:07:27.764Z,74229
2015-10-24T01:07:40.107Z,74230
2015-10-24T01:07:52.439Z,74222
2015-10-24T01:08:04.751Z,74216
2015-10-24T01:08:17.079Z,74224
2015-10-24T01:08:29.407Z,74223
2015-10-24T01:08:41.735Z,74224
2015-10-24T01:08:54.081Z,74224
2015-10-24T01:09:06.409Z,74223
2015-10-24T01:09:18.784Z,74228
2015-10-24T01:09:31.144Z,74224
2015-10-24T01:09:43.503Z,74226
2015-10-24T01:09:55.834Z,74224
2015-10-24T01:10:08.162Z,74224
2015-10-24T01:10:20.475Z,74215
2015-10-24T01:10:32.803Z,74217
2015-10-24T01:10:45.133Z,74219
2015-10-24T01:10:57.461Z,74219
2015-10-24T01:11:09.789Z,74223
2015-10-24T01:11:21.414Z,74226
2015-10-24T01:11:33.758Z,74223
